Terminal Aerodrome Forecast
Issued by NWS Charleston, WV

Current Version | Previous Version | Text Only | Print | Product List | Glossary Off
Versions: 1 2 3 4 5 6 7 8 9 10 11 12 13 14 15 16 17 18 19 20 21

680
FTUS41 KRLX 091757 RRA
TAFBKW
TAF
KBKW 091757Z 0918/1018 29009G16KT 3SM -SHSN SCT010 OVC020
      TEMPO 0920/0924 3/4SM -SHSN BR BKN010
     FM100000 28011G19KT 4SM -SHSN OVC010
     FM101500 28012G20KT 4SM -SHSN BKN015=

USA.gov is the U.S. government's official web portal to all federal, state and local government web resources and services.